EGAE/LDY METAR and TAF weather

Enter ICAO airport designator
Station Type Date Time Source
EGAE METAR 2020/04/03 19:50 UTC NOAA

EGAE 031950Z 24008KT 9999 FEW018 SCT040 08/04 Q1014


Station Type Date Time Source
EGAE Decoded METAR 2020/04/03 19:50 UTC NOAA

Eglinton / Londonderr, United Kingdom (EGAE) 55-03N 007-09W
Apr 03, 2020 - 03:50 PM EDT / 2020.04.03 1950 UTC
Wind: from the WSW (240 degrees) at 9 MPH (8 KT):0
Visibility: greater than 7 mile(s):0
Sky conditions: partly cloudy
Temperature: 46 F (8 C)
Dew Point: 39 F (4 C)
Relative Humidity: 75%
Pressure (altimeter): 29.94 in. Hg (1014 hPa)
ob: EGAE 031950Z 24008KT 9999 FEW018 SCT040 08/04 Q1014
cycle: 20

Station Type Date Time Source
EGAE TAF UTC NOAA

Error!

Example: see airport list